Haukur — OZ2119 — position and weather

sailwx.info

Track history (hours):
 
Tides and Currents Weather Stations Pressure Air Temp Water Temp Dewpoint Dewpoint Depression Visibility Wind Speed Wind Dir Waves Ship Positions

Haukur

Last reported at 2014-Nov-27 00:33 UTC. Time now 2014-Nov-28 04:15 UTC.
Position N 58°45' E 005°16'.

Length 75 m; draft 5.4 m.

Type: Cargo ship. MMSI: 231812000.

Date/timePositionNaut miles runAvg speedWind from/ knotsBaromVisibWave heightAir tempDewpointWater temp
2014-Nov-27 00:33N 58°45' E 005°16'7 7.2
2014-Nov-26 23:33N 58°52' E 005°17'8 7.9
2014-Nov-26 22:33N 59°00' E 005°17'7 6.8
2014-Nov-26 21:33N 59°07' E 005°16'7 6.8
2014-Nov-26 20:33N 59°12' E 005°08'8 7.5
2014-Nov-26 19:33N 59°20' E 005°10'2 0.3
2014-Nov-26 10:21N 59°18' E 005°14'0 0.0
2014-Nov-25 18:33N 59°18' E 005°14'0 0.0
2014-Nov-25 17:33N 59°18' E 005°14'0 0.0
2014-Nov-25 16:33N 59°18' E 005°14'0 0.0
2014-Nov-25 14:33N 59°18' E 005°14'0 0.0
2014-Nov-25 13:33N 59°18' E 005°14'0 0.0
2014-Nov-25 12:33N 59°18' E 005°14'0 0.0
2014-Nov-25 11:33N 59°18' E 005°14'3 0.2
2014-Nov-24 20:33N 59°19' E 005°09'9 9.5
2014-Nov-24 19:33N 59°10' E 005°08'6 6.4
2014-Nov-24 18:33N 59°09' E 005°21'5 5.0
2014-Nov-24 17:33N 59°06' E 005°13'9 9.1
2014-Nov-24 16:33N 59°09' E 004°56'340 7.7
2014-Nov-22 20:32N 62°42' W 004°09'26 3.7
2014-Nov-22 13:27N 63°02' W 004°49'  
Track history (hours):
 
Tides and Currents Weather Stations Pressure Air Temp Water Temp Dewpoint Dewpoint Depression Visibility Wind Speed Wind Dir Waves Ship Positions

Haukur

Last reported at 2014-Nov-27 00:33 UTC. Time now 2014-Nov-28 04:15 UTC.
Position N 58°45' E 005°16'.

Length 75 m; draft 5.4 m.

Type: Cargo ship. MMSI: 231812000.

Date/timePositionNaut miles runAvg speedWind from/ knotsBaromVisibWave heightAir tempDewpointWater temp
2014-Nov-27 00:33N 58°45' E 005°16'7 7.2
2014-Nov-26 23:33N 58°52' E 005°17'8 7.9
2014-Nov-26 22:33N 59°00' E 005°17'7 6.8
2014-Nov-26 21:33N 59°07' E 005°16'7 6.8
2014-Nov-26 20:33N 59°12' E 005°08'8 7.5
2014-Nov-26 19:33N 59°20' E 005°10'2 0.3
2014-Nov-26 10:21N 59°18' E 005°14'0 0.0
2014-Nov-25 18:33N 59°18' E 005°14'0 0.0
2014-Nov-25 17:33N 59°18' E 005°14'0 0.0
2014-Nov-25 16:33N 59°18' E 005°14'0 0.0
2014-Nov-25 14:33N 59°18' E 005°14'0 0.0
2014-Nov-25 13:33N 59°18' E 005°14'0 0.0
2014-Nov-25 12:33N 59°18' E 005°14'0 0.0
2014-Nov-25 11:33N 59°18' E 005°14'3 0.2
2014-Nov-24 20:33N 59°19' E 005°09'9 9.5
2014-Nov-24 19:33N 59°10' E 005°08'6 6.4
2014-Nov-24 18:33N 59°09' E 005°21'5 5.0
2014-Nov-24 17:33N 59°06' E 005°13'9 9.1
2014-Nov-24 16:33N 59°09' E 004°56'340 7.7
2014-Nov-22 20:32N 62°42' W 004°09'26 3.7
2014-Nov-22 13:27N 63°02' W 004°49'  

Dump ship's entire track history